Tenko Maru — HPRN — position and weather

sailwx.info

Track history (hours):
 
Tides and Currents Weather Stations Pressure Air Temp Water Temp Dewpoint Dewpoint Depression Visibility Wind Speed Wind Dir Waves Ship Positions

Tenko Maru

Last reported at 2015-Jun-09 23:09 UTC. Time now 2015-Jul-06 22:10 UTC.
Position N 01°55' E 102°21'.
Warning: this ship's position is 26 days out of date.

Length 190 m; draft 9 m.

Type: Cargo ship. MMSI: 370715000.

Date/timePositionNaut miles runAvg speedWind from/ knotsBaromVisibWave heightAir tempDewpointWater temp
2015-Jun-09 23:09N 01°55' E 102°21'812.8
2015-Jun-09 22:33N 01°52' E 102°28'1312.6
2015-Jun-09 21:33N 01°46' E 102°40'1211.9
2015-Jun-09 20:33N 01°41' E 102°51'6711.0
2015-Jun-09 14:30N 01°11' E 103°50'1111.2
2015-Jun-09 13:33N 01°15' E 104°00'2 2.3
2015-Jun-09 12:31N 01°17' E 104°01'0 0.1
2015-Jun-09 11:31N 01°17' E 104°01'0 0.0
2015-Jun-09 10:13N 01°18' E 104°01'0 0.0
2015-Jun-09 09:19N 01°18' E 104°01'0 0.0
2015-Jun-09 08:31N 01°18' E 104°01'0 0.1
2015-Jun-09 07:31N 01°17' E 104°01'0 0.0
2015-Jun-09 06:31N 01°17' E 104°01'0 0.1
2015-Jun-09 05:31N 01°18' E 104°01'0 0.2
2015-Jun-09 04:31N 01°17' E 104°01'2 2.3
2015-Jun-09 03:33N 01°16' E 103°60'1 0.7
2015-Jun-09 02:33N 01°16' E 104°00'3 3.3
2015-Jun-09 01:33N 01°16' E 104°04'3 3.5
2015-Jun-09 00:33N 01°17' E 104°07'6 4.3
2015-Jun-08 23:10N 01°17' E 104°13'  
2015-Jun-02 19:28N 24°16' E 118°59'3210.9
2015-Jun-02 16:33N 24°38' E 119°24'3110.2
2015-Jun-02 13:29N 25°01' E 119°48'1010.2
2015-Jun-02 12:30N 25°07' E 119°56'9 9.8
2015-Jun-02 11:33N 25°14' E 120°03'12 9.9
2015-Jun-02 10:20N 25°22' E 120°13'42910.2
2015-May-31 16:22N 31°41' E 124°00'14911.3
2015-May-31 03:08N 33°57' E 122°46'711.3
2015-May-31 02:33N 34°02' E 122°40'  
Track history (hours):
 
Tides and Currents Weather Stations Pressure Air Temp Water Temp Dewpoint Dewpoint Depression Visibility Wind Speed Wind Dir Waves Ship Positions

Tenko Maru

Last reported at 2015-Jun-09 23:09 UTC. Time now 2015-Jul-06 22:10 UTC.
Position N 01°55' E 102°21'.
Warning: this ship's position is 26 days out of date.

Length 190 m; draft 9 m.

Type: Cargo ship. MMSI: 370715000.

Date/timePositionNaut miles runAvg speedWind from/ knotsBaromVisibWave heightAir tempDewpointWater temp
2015-Jun-09 23:09N 01°55' E 102°21'812.8
2015-Jun-09 22:33N 01°52' E 102°28'1312.6
2015-Jun-09 21:33N 01°46' E 102°40'1211.9
2015-Jun-09 20:33N 01°41' E 102°51'6711.0
2015-Jun-09 14:30N 01°11' E 103°50'1111.2
2015-Jun-09 13:33N 01°15' E 104°00'2 2.3
2015-Jun-09 12:31N 01°17' E 104°01'0 0.1
2015-Jun-09 11:31N 01°17' E 104°01'0 0.0
2015-Jun-09 10:13N 01°18' E 104°01'0 0.0
2015-Jun-09 09:19N 01°18' E 104°01'0 0.0
2015-Jun-09 08:31N 01°18' E 104°01'0 0.1
2015-Jun-09 07:31N 01°17' E 104°01'0 0.0
2015-Jun-09 06:31N 01°17' E 104°01'0 0.1
2015-Jun-09 05:31N 01°18' E 104°01'0 0.2
2015-Jun-09 04:31N 01°17' E 104°01'2 2.3
2015-Jun-09 03:33N 01°16' E 103°60'1 0.7
2015-Jun-09 02:33N 01°16' E 104°00'3 3.3
2015-Jun-09 01:33N 01°16' E 104°04'3 3.5
2015-Jun-09 00:33N 01°17' E 104°07'6 4.3
2015-Jun-08 23:10N 01°17' E 104°13'  
2015-Jun-02 19:28N 24°16' E 118°59'3210.9
2015-Jun-02 16:33N 24°38' E 119°24'3110.2
2015-Jun-02 13:29N 25°01' E 119°48'1010.2
2015-Jun-02 12:30N 25°07' E 119°56'9 9.8
2015-Jun-02 11:33N 25°14' E 120°03'12 9.9
2015-Jun-02 10:20N 25°22' E 120°13'42910.2
2015-May-31 16:22N 31°41' E 124°00'14911.3
2015-May-31 03:08N 33°57' E 122°46'711.3
2015-May-31 02:33N 34°02' E 122°40'  

Dump ship's entire track history